createdAt,value
2022-10-13T00:00:21.800Z,100529.13
2022-10-13T00:02:49.328Z,100531.50
2022-10-13T00:05:18.954Z,100532.16
2022-10-13T00:07:46.469Z,100532.00
2022-10-13T00:10:14.037Z,100529.34
2022-10-13T00:12:41.563Z,100531.94
2022-10-13T00:15:12.350Z,100524.19
2022-10-13T00:17:41.702Z,100523.94
2022-10-13T00:20:11.076Z,100518.72
2022-10-13T00:22:40.020Z,100522.13
2022-10-13T00:25:08.467Z,100530.53
2022-10-13T00:27:35.996Z,100523.63
2022-10-13T00:30:03.625Z,100519.38
2022-10-13T00:32:31.202Z,100514.09
2022-10-13T00:34:58.682Z,100513.22
2022-10-13T00:37:26.391Z,100524.38
2022-10-13T00:39:55.293Z,100520.94
2022-10-13T00:42:26.201Z,100515.72
2022-10-13T00:45:04.794Z,100512.34
2022-10-13T00:47:37.871Z,100519.91
2022-10-13T00:50:08.329Z,100514.66
2022-10-13T00:52:37.464Z,100509.41
2022-10-13T00:55:08.684Z,100513.66
2022-10-13T00:57:39.724Z,100516.06
2022-10-13T01:00:08.735Z,100509.19
2022-10-13T01:02:38.131Z,100517.72
2022-10-13T01:05:07.910Z,100514.31
2022-10-13T01:07:36.061Z,100514.31
2022-10-13T01:10:05.141Z,100512.78
2022-10-13T01:12:50.150Z,100511.16
2022-10-13T01:15:23.756Z,100506.94
2022-10-13T01:18:00.215Z,100514.00
2022-10-13T01:20:50.667Z,100508.09
2022-10-13T01:23:30.812Z,100497.81
2022-10-13T01:26:23.557Z,100504.69
2022-10-13T01:29:12.868Z,100497.91
2022-10-13T01:31:49.337Z,100498.75
2022-10-13T01:34:21.803Z,100497.91
2022-10-13T01:36:55.928Z,100493.53
2022-10-13T01:39:36.919Z,100499.47
2022-10-13T01:42:13.109Z,100502.84
2022-10-13T01:44:46.072Z,100497.72
2022-10-13T01:47:17.439Z,100495.94
2022-10-13T01:49:46.185Z,100499.34
2022-10-13T01:52:17.725Z,100501.84
2022-10-13T01:54:49.311Z,100496.06
2022-10-13T01:57:33.154Z,100506.47
2022-10-13T02:00:02.381Z,100503.16
2022-10-13T02:02:49.559Z,100507.34
2022-10-13T02:05:27.401Z,100506.56
2022-10-13T02:08:02.443Z,100492.88
2022-10-13T02:10:36.190Z,100499.88
2022-10-13T02:13:07.404Z,100505.16
2022-10-13T02:15:39.617Z,100504.38
2022-10-13T02:18:13.037Z,100497.53
2022-10-13T02:20:42.354Z,100500.31
2022-10-13T02:23:13.025Z,100495.97
2022-10-13T02:25:41.396Z,100500.41
2022-10-13T02:28:10.991Z,100496.94
2022-10-13T02:30:44.669Z,100497.72
2022-10-13T02:33:14.241Z,100494.25
2022-10-13T02:35:42.000Z,100496.84
2022-10-13T02:38:10.001Z,100488.09
2022-10-13T02:40:37.568Z,100480.28
2022-10-13T02:43:05.321Z,100485.44
2022-10-13T02:45:32.914Z,100482.78
2022-10-13T02:48:00.487Z,100478.56
2022-10-13T02:50:29.443Z,100472.41
2022-10-13T02:52:57.381Z,100471.53
2022-10-13T02:55:24.879Z,100458.66
2022-10-13T02:57:56.796Z,100459.44
2022-10-13T03:00:24.328Z,100453.59
2022-10-13T03:02:51.837Z,100462.22
2022-10-13T03:05:19.392Z,100462.22
2022-10-13T03:07:49.592Z,100455.34
2022-10-13T03:10:17.292Z,100458.72
2022-10-13T03:12:44.815Z,100459.44
2022-10-13T03:15:12.337Z,100458.53
2022-10-13T03:17:39.857Z,100454.09
2022-10-13T03:20:09.011Z,100456.66
2022-10-13T03:22:36.764Z,100453.03
2022-10-13T03:25:06.757Z,100455.56
2022-10-13T03:27:34.567Z,100470.00
2022-10-13T03:30:02.088Z,100470.84
2022-10-13T03:32:31.324Z,100464.88
2022-10-13T03:34:58.838Z,100463.13
2022-10-13T03:37:26.392Z,100465.53
2022-10-13T03:39:53.962Z,100462.69
2022-10-13T03:42:22.917Z,100451.53
2022-10-13T03:44:55.959Z,100447.94
2022-10-13T03:47:23.791Z,100446.22
2022-10-13T03:49:53.316Z,100444.34
2022-10-13T03:52:21.196Z,100439.03
2022-10-13T03:54:49.026Z,100440.63
2022-10-13T03:57:16.644Z,100443.19
2022-10-13T03:59:45.509Z,100463.75
2022-10-13T04:02:13.021Z,100452.53
2022-10-13T04:04:40.522Z,100448.22
2022-10-13T04:07:09.191Z,100451.72
2022-10-13T04:09:36.699Z,100454.34
2022-10-13T04:12:04.726Z,100455.25
2022-10-13T04:14:32.348Z,100466.56
2022-10-13T04:17:10.133Z,100455.56
2022-10-13T04:19:37.697Z,100465.09
2022-10-13T04:22:06.687Z,100452.41
2022-10-13T04:24:34.451Z,100461.47
2022-10-13T04:27:01.955Z,100463.53
2022-10-13T04:29:29.443Z,100453.50
2022-10-13T04:31:56.943Z,100446.06
2022-10-13T04:34:25.888Z,100438.56
2022-10-13T04:36:53.405Z,100443.72
2022-10-13T04:39:20.952Z,100453.19
2022-10-13T04:41:50.930Z,100457.53
2022-10-13T04:44:18.457Z,100448.97
2022-10-13T04:46:46.024Z,100461.84
2022-10-13T04:49:15.179Z,100452.38
2022-10-13T04:51:44.392Z,100454.13
2022-10-13T04:54:11.896Z,100450.63
2022-10-13T04:56:39.547Z,100447.09
2022-10-13T04:59:07.081Z,100441.09
2022-10-13T05:01:35.856Z,100435.06
2022-10-13T05:04:06.898Z,100439.22
2022-10-13T05:06:53.360Z,100445.00
2022-10-13T05:09:27.387Z,100450.09
2022-10-13T05:11:55.539Z,100450.19
2022-10-13T05:14:23.255Z,100450.34
2022-10-13T05:16:50.768Z,100459.72
2022-10-13T05:19:18.288Z,100468.19
2022-10-13T05:21:45.792Z,100461.34
2022-10-13T05:24:15.636Z,100461.25
2022-10-13T05:26:45.528Z,100448.34
2022-10-13T05:29:13.056Z,100440.53
2022-10-13T05:31:41.316Z,100439.69
2022-10-13T05:34:08.872Z,100430.06
2022-10-13T05:36:36.380Z,100427.66
2022-10-13T05:39:07.336Z,100422.72
2022-10-13T05:41:34.931Z,100423.59
2022-10-13T05:44:09.699Z,100423.75
2022-10-13T05:46:42.917Z,100422.06
2022-10-13T05:49:10.815Z,100416.91
2022-10-13T05:51:41.883Z,100403.13
2022-10-13T05:54:13.922Z,100409.16
2022-10-13T05:56:47.341Z,100414.38
2022-10-13T05:59:17.600Z,100402.34
2022-10-13T06:01:48.809Z,100402.47
2022-10-13T06:04:21.437Z,100399.06
2022-10-13T06:06:49.913Z,100399.19
2022-10-13T06:09:17.872Z,100391.69
2022-10-13T06:11:46.058Z,100392.72
2022-10-13T06:14:13.579Z,100397.16
2022-10-13T06:16:42.421Z,100400.63
2022-10-13T06:19:10.027Z,100408.41
2022-10-13T06:21:37.570Z,100403.56
2022-10-13T06:24:05.544Z,100395.25
2022-10-13T06:26:33.218Z,100395.44
2022-10-13T06:29:01.026Z,100389.63
2022-10-13T06:31:29.714Z,100398.22
2022-10-13T06:33:59.000Z,100397.69
2022-10-13T06:36:26.725Z,100401.25
2022-10-13T06:38:54.322Z,100403.94
2022-10-13T06:41:22.217Z,100407.66
2022-10-13T06:43:49.733Z,100410.66
2022-10-13T06:46:18.027Z,100420.41
2022-10-13T06:48:45.532Z,100417.72
2022-10-13T06:51:14.497Z,100420.72
2022-10-13T06:53:41.992Z,100421.91
2022-10-13T06:56:09.943Z,100416.88
2022-10-13T06:58:38.322Z,100417.75
2022-10-13T07:01:06.846Z,100414.31
2022-10-13T07:03:34.642Z,100416.88
2022-10-13T07:06:02.861Z,100409.97
2022-10-13T07:08:32.033Z,100403.25
2022-10-13T07:10:59.852Z,100403.16
2022-10-13T07:13:27.613Z,100416.97
2022-10-13T07:15:55.268Z,100412.25
2022-10-13T07:18:22.851Z,100400.44
2022-10-13T07:20:50.348Z,100393.78
2022-10-13T07:23:17.843Z,100380.25
2022-10-13T07:25:46.733Z,100380.34
2022-10-13T07:28:14.551Z,100390.56
2022-10-13T07:30:42.319Z,100398.22
2022-10-13T07:33:09.819Z,100397.78
2022-10-13T07:35:39.459Z,100403.56
2022-10-13T07:38:07.448Z,100400.50
2022-10-13T07:40:35.113Z,100405.84
2022-10-13T07:43:04.014Z,100396.78
2022-10-13T07:45:31.674Z,100406.63
2022-10-13T07:47:59.246Z,100412.03
2022-10-13T07:50:26.766Z,100408.81
2022-10-13T07:52:54.294Z,100401.91
2022-10-13T07:55:21.803Z,100402.94
2022-10-13T07:57:55.076Z,100404.09
2022-10-13T08:00:24.703Z,100403.47
2022-10-13T08:02:52.328Z,100392.50
2022-10-13T08:05:19.901Z,100390.13
2022-10-13T08:07:47.388Z,100387.66
2022-10-13T08:10:15.223Z,100380.06
2022-10-13T08:12:42.767Z,100367.22
2022-10-13T08:15:11.484Z,100378.53
2022-10-13T08:17:40.428Z,100376.09
2022-10-13T08:20:08.986Z,100385.84
2022-10-13T08:22:36.522Z,100387.50
2022-10-13T08:25:04.636Z,100390.84
2022-10-13T08:27:50.145Z,100388.41
2022-10-13T08:30:18.959Z,100390.41
2022-10-13T08:32:47.993Z,100390.63
2022-10-13T08:35:15.853Z,100381.25
2022-10-13T08:37:43.680Z,100382.25
2022-10-13T08:40:15.021Z,100387.59
2022-10-13T08:42:44.261Z,100377.34
2022-10-13T08:48:14.967Z,100378.47
2022-10-13T08:50:45.144Z,100372.66
2022-10-13T08:53:16.289Z,100373.66
2022-10-13T08:55:50.964Z,100371.28
2022-10-13T08:58:22.290Z,100369.69
2022-10-13T09:00:57.217Z,100370.66
2022-10-13T09:03:28.369Z,100374.00
2022-10-13T09:06:04.861Z,100386.03
2022-10-13T09:08:41.921Z,100386.84
2022-10-13T09:11:11.643Z,100388.53
2022-10-13T09:13:39.184Z,100390.19
2022-10-13T09:16:07.545Z,100385.91
2022-10-13T09:18:37.491Z,100397.28
2022-10-13T09:21:22.604Z,100393.81
2022-10-13T09:23:51.416Z,100392.81
2022-10-13T09:26:23.212Z,100383.31
2022-10-13T09:28:51.821Z,100382.50
2022-10-13T09:31:24.909Z,100381.69
2022-10-13T09:34:01.353Z,100388.69
2022-10-13T09:36:31.108Z,100391.41
2022-10-13T09:39:13.372Z,100394.00
2022-10-13T09:41:42.468Z,100392.22
2022-10-13T09:44:13.571Z,100392.88
2022-10-13T09:46:48.402Z,100376.19
2022-10-13T09:49:37.292Z,100383.19
2022-10-13T09:52:17.697Z,100384.97
2022-10-13T09:54:47.812Z,100383.22
2022-10-13T09:57:23.132Z,100385.81
2022-10-13T09:59:52.561Z,100372.19
2022-10-13T10:02:29.923Z,100359.44
2022-10-13T10:05:02.029Z,100371.75
2022-10-13T10:07:32.866Z,100369.41
2022-10-13T10:10:04.775Z,100372.06
2022-10-13T10:12:37.228Z,100368.38
2022-10-13T10:15:19.059Z,100359.97
2022-10-13T10:17:53.533Z,100354.84
2022-10-13T10:20:38.701Z,100369.72
2022-10-13T10:23:13.449Z,100369.78
2022-10-13T10:25:44.600Z,100370.66
2022-10-13T10:28:27.556Z,100372.25
2022-10-13T10:31:02.705Z,100371.50
2022-10-13T10:33:41.321Z,100372.47
2022-10-13T10:36:16.842Z,100366.53
2022-10-13T10:38:51.896Z,100357.16
2022-10-13T10:41:32.145Z,100355.59
2022-10-13T10:44:03.438Z,100363.38
2022-10-13T10:46:35.609Z,100353.03
2022-10-13T10:49:12.662Z,100348.72
2022-10-13T10:51:40.331Z,100347.03
2022-10-13T10:54:31.270Z,100351.34
2022-10-13T10:57:04.223Z,100346.19
2022-10-13T10:59:51.426Z,100343.56
2022-10-13T11:02:44.467Z,100338.38
2022-10-13T11:05:12.617Z,100336.69
2022-10-13T11:08:00.471Z,100329.81
2022-10-13T11:10:30.401Z,100333.34
2022-10-13T11:13:22.181Z,100330.72
2022-10-13T11:15:50.357Z,100328.13
2022-10-13T11:19:05.371Z,100324.63
2022-10-13T11:22:11.509Z,100319.38
2022-10-13T11:24:57.227Z,100308.09
2022-10-13T11:27:40.676Z,100314.19
2022-10-13T11:30:43.473Z,100310.72
2022-10-13T11:33:45.636Z,100305.50
2022-10-13T11:36:50.725Z,100298.53
2022-10-13T11:39:41.816Z,100291.66
2022-10-13T11:42:22.966Z,100292.53
2022-10-13T11:44:56.009Z,100289.91
2022-10-13T11:47:53.752Z,100276.94
2022-10-13T11:50:30.075Z,100279.47
2022-10-13T11:53:14.792Z,100263.78
2022-10-13T11:55:49.266Z,100252.31
2022-10-13T11:58:18.688Z,100249.56
2022-10-13T12:00:56.298Z,100244.97
2022-10-13T12:03:28.428Z,100243.84
2022-10-13T12:05:59.032Z,100245.44
2022-10-13T12:08:28.233Z,100237.47
2022-10-13T12:10:59.968Z,100239.38
2022-10-13T12:13:30.660Z,100240.66
2022-10-13T12:16:03.079Z,100237.53
2022-10-13T12:18:33.989Z,100227.19
2022-10-13T12:21:04.472Z,100224.59
2022-10-13T12:23:33.704Z,100221.19
2022-10-13T12:26:03.044Z,100217.66
2022-10-13T12:28:43.840Z,100215.94
2022-10-13T12:31:20.182Z,100225.47
2022-10-13T12:33:53.832Z,100223.75
2022-10-13T12:36:23.172Z,100216.81
2022-10-13T12:38:54.500Z,100221.22
2022-10-13T12:41:27.008Z,100215.09
2022-10-13T12:43:55.373Z,100214.28
2022-10-13T12:46:42.129Z,100212.50
2022-10-13T12:49:16.199Z,100216.00
2022-10-13T12:51:45.661Z,100219.47
2022-10-13T12:54:20.396Z,100206.41
2022-10-13T12:56:49.420Z,100221.19
2022-10-13T12:59:21.251Z,100217.72
2022-10-13T13:01:56.605Z,100218.66
2022-10-13T13:04:41.341Z,100215.19
2022-10-13T13:07:28.215Z,100217.78
2022-10-13T13:10:03.810Z,100209.91
2022-10-13T13:12:31.696Z,100208.13
2022-10-13T13:14:59.332Z,100203.78
2022-10-13T13:17:56.559Z,100206.31
2022-10-13T13:20:21.343Z,100208.00
2022-10-13T13:22:50.682Z,100212.31
2022-10-13T13:25:18.240Z,100204.53
2022-10-13T13:27:45.763Z,100199.31
2022-10-13T13:30:19.069Z,100202.75
2022-10-13T13:32:48.163Z,100211.44
2022-10-13T13:35:15.881Z,100204.41
2022-10-13T13:37:47.801Z,100210.53
2022-10-13T13:40:17.508Z,100215.78
2022-10-13T13:42:45.433Z,100207.19
2022-10-13T13:45:13.850Z,100204.66
2022-10-13T13:47:41.632Z,100191.59
2022-10-13T13:50:16.965Z,100187.28
2022-10-13T13:52:54.985Z,100187.25
2022-10-13T13:55:23.162Z,100184.63
2022-10-13T13:57:50.732Z,100178.59
2022-10-13T14:00:18.977Z,100179.44
2022-10-13T14:02:55.497Z,100183.78
2022-10-13T14:05:24.515Z,100175.19
2022-10-13T14:07:54.571Z,100176.91
2022-10-13T14:10:22.140Z,100166.50
2022-10-13T14:12:49.635Z,100176.03
2022-10-13T14:15:17.782Z,100177.81
2022-10-13T14:17:45.403Z,100180.44
2022-10-13T14:20:13.026Z,100177.78
2022-10-13T14:22:43.554Z,100178.72
2022-10-13T14:25:11.895Z,100177.84
2022-10-13T14:27:39.477Z,100181.38
2022-10-13T14:30:10.189Z,100165.75
2022-10-13T14:32:38.301Z,100171.88
2022-10-13T14:35:06.910Z,100161.50
2022-10-13T14:37:34.830Z,100169.28
2022-10-13T14:40:04.490Z,100164.06
2022-10-13T14:42:33.105Z,100175.34
2022-10-13T14:45:00.705Z,100168.44
2022-10-13T14:47:28.347Z,100170.13
2022-10-13T14:49:56.081Z,100169.28
2022-10-13T14:52:23.713Z,100171.88
2022-10-13T14:54:51.281Z,100175.38
2022-10-13T14:57:20.515Z,100177.09
2022-10-13T14:59:48.397Z,100172.75
2022-10-13T15:02:16.140Z,100169.28
2022-10-13T15:04:52.057Z,100174.47
2022-10-13T15:07:20.549Z,100177.09
2022-10-13T15:10:05.068Z,100176.22
2022-10-13T15:12:34.931Z,100174.50
2022-10-13T15:15:02.642Z,100179.69
2022-10-13T15:17:33.341Z,100177.94
2022-10-13T15:20:01.079Z,100184.03
2022-10-13T15:22:28.599Z,100175.34
2022-10-13T15:24:56.128Z,100169.28
2022-10-13T15:27:24.280Z,100170.16
2022-10-13T15:29:53.128Z,100172.75
2022-10-13T15:32:21.722Z,100171.88
2022-10-13T15:34:55.708Z,100173.63
2022-10-13T15:37:23.212Z,100164.97
2022-10-13T15:39:56.019Z,100167.56
2022-10-13T15:42:24.529Z,100161.47
2022-10-13T15:45:10.404Z,100163.22
2022-10-13T15:47:38.833Z,100158.88
2022-10-13T15:50:07.176Z,100164.94
2022-10-13T15:52:38.551Z,100166.69
2022-10-13T15:55:06.628Z,100164.94
2022-10-13T15:57:34.236Z,100166.66
2022-10-13T16:00:03.400Z,100158.00
2022-10-13T16:02:40.189Z,100158.88
2022-10-13T16:05:09.415Z,100155.38
2022-10-13T16:07:37.128Z,100153.66
2022-10-13T16:10:04.869Z,100151.03
2022-10-13T16:12:32.424Z,100148.44
2022-10-13T16:14:59.960Z,100154.50
2022-10-13T16:17:28.830Z,100159.69
2022-10-13T16:19:56.624Z,100156.19
2022-10-13T16:22:25.297Z,100156.13
2022-10-13T16:24:53.032Z,100157.84
2022-10-13T16:27:20.749Z,100163.03
2022-10-13T16:29:48.326Z,100149.09
2022-10-13T16:32:15.948Z,100149.06
2022-10-13T16:34:47.380Z,100149.03
2022-10-13T16:37:19.877Z,100156.78
2022-10-13T16:39:51.486Z,100148.94
2022-10-13T16:42:19.567Z,100148.91
2022-10-13T16:44:47.097Z,100148.06
2022-10-13T16:47:18.231Z,100145.44
2022-10-13T16:49:47.940Z,100149.72
2022-10-13T16:52:17.120Z,100147.91
2022-10-13T16:54:44.774Z,100148.69
2022-10-13T16:57:12.336Z,100152.09
2022-10-13T16:59:39.828Z,100150.34
2022-10-13T17:02:07.625Z,100154.63
2022-10-13T17:04:38.148Z,100152.03
2022-10-13T17:07:06.984Z,100148.53
2022-10-13T17:09:34.568Z,100161.47
2022-10-13T17:12:02.177Z,100165.78
2022-10-13T17:14:29.744Z,100164.03
2022-10-13T17:16:58.129Z,100161.38
2022-10-13T17:19:26.347Z,100165.69
2022-10-13T17:21:53.881Z,100162.19
2022-10-13T17:24:22.741Z,100159.56
2022-10-13T17:26:50.962Z,100163.88
2022-10-13T17:29:18.777Z,100167.28
2022-10-13T17:31:46.313Z,100168.16
2022-10-13T17:34:13.915Z,100164.66
2022-10-13T17:36:41.428Z,100162.91
2022-10-13T17:39:11.154Z,100164.59
2022-10-13T17:41:43.550Z,100165.47
2022-10-13T17:44:11.506Z,100167.16
2022-10-13T17:46:39.778Z,100174.91
2022-10-13T17:49:10.647Z,100168.88
2022-10-13T17:51:38.209Z,100174.91
2022-10-13T17:54:08.223Z,100174.09
2022-10-13T17:56:39.106Z,100163.72
2022-10-13T17:59:09.700Z,100175.81
2022-10-13T18:01:38.050Z,100168.84
2022-10-13T18:04:08.343Z,100174.00
2022-10-13T18:06:39.845Z,100170.53
2022-10-13T18:09:09.495Z,100178.25
2022-10-13T18:11:37.893Z,100174.75
2022-10-13T18:14:06.572Z,100180.78
2022-10-13T18:16:37.032Z,100185.94
2022-10-13T18:19:05.798Z,100180.72
2022-10-13T18:21:33.331Z,100185.06
2022-10-13T18:24:02.375Z,100179.81
2022-10-13T18:26:34.753Z,100178.03
2022-10-13T18:29:03.148Z,100184.06
2022-10-13T18:31:32.195Z,100177.13
2022-10-13T18:34:03.900Z,100175.38
2022-10-13T18:36:33.896Z,100168.47
2022-10-13T18:39:07.245Z,100170.19
2022-10-13T18:41:36.247Z,100168.41
2022-10-13T18:44:04.410Z,100172.66
2022-10-13T18:46:32.159Z,100173.53
2022-10-13T18:49:01.089Z,100166.56
2022-10-13T18:51:35.590Z,100172.53
2022-10-13T18:54:04.710Z,100180.22
2022-10-13T18:56:32.895Z,100183.66
2022-10-13T18:59:02.607Z,100193.09
2022-10-13T19:01:32.093Z,100190.50
2022-10-13T19:04:01.455Z,100189.63
2022-10-13T19:06:32.055Z,100189.59
2022-10-13T19:09:01.456Z,100193.03
2022-10-13T19:11:30.219Z,100194.75
2022-10-13T19:13:59.172Z,100197.34
2022-10-13T19:16:29.720Z,100196.47
2022-10-13T19:18:57.660Z,100199.06
2022-10-13T19:21:26.749Z,100190.41
2022-10-13T19:23:55.013Z,100188.66
2022-10-13T19:26:24.609Z,100180.06
2022-10-13T19:28:55.176Z,100180.00
2022-10-13T19:31:26.320Z,100175.63
2022-10-13T19:33:55.652Z,100173.03
2022-10-13T19:36:27.681Z,100174.69
2022-10-13T19:38:57.752Z,100176.34
2022-10-13T19:41:26.395Z,100178.88
2022-10-13T19:43:53.895Z,100171.97
2022-10-13T19:46:22.743Z,100172.84
2022-10-13T19:48:50.265Z,100169.31
2022-10-13T19:51:18.182Z,100172.81
2022-10-13T19:53:47.136Z,100176.22
2022-10-13T19:56:24.039Z,100179.66
2022-10-13T19:58:52.827Z,100183.97
2022-10-13T20:01:23.110Z,100181.38
2022-10-13T20:03:50.935Z,100183.91
2022-10-13T20:06:20.141Z,100192.50
2022-10-13T20:08:49.704Z,100189.03
2022-10-13T20:11:23.346Z,100189.00
2022-10-13T20:13:51.961Z,100200.25
2022-10-13T20:16:21.584Z,100189.00
2022-10-13T20:18:53.116Z,100198.47
2022-10-13T20:21:20.659Z,100196.72
2022-10-13T20:23:50.132Z,100196.72
2022-10-13T20:26:18.328Z,100189.84
2022-10-13T20:28:47.341Z,100188.09
2022-10-13T20:31:16.976Z,100189.84
2022-10-13T20:33:44.872Z,100188.84
2022-10-13T20:36:14.741Z,100187.09
2022-10-13T20:38:42.616Z,100192.28
2022-10-13T20:41:17.103Z,100184.50
2022-10-13T20:43:45.336Z,100186.16
2022-10-13T20:46:12.961Z,100190.47
2022-10-13T20:49:05.553Z,100190.44
2022-10-13T20:51:29.838Z,100182.59
2022-10-13T20:53:57.365Z,100182.59
2022-10-13T20:56:27.300Z,100179.09
2022-10-13T20:58:55.276Z,100190.38
2022-10-13T21:01:23.617Z,100184.25
2022-10-13T21:03:53.982Z,100179.94
2022-10-13T21:06:22.453Z,100184.25
2022-10-13T21:08:49.999Z,100180.81
2022-10-13T21:11:19.950Z,100187.63
2022-10-13T21:13:49.488Z,100182.44
2022-10-13T21:16:19.087Z,100183.22
2022-10-13T21:18:48.880Z,100180.63
2022-10-13T21:21:19.007Z,100188.38
2022-10-13T21:23:55.423Z,100196.00
2022-10-13T21:26:23.923Z,100193.44
2022-10-13T21:28:53.039Z,100196.88
2022-10-13T21:31:22.349Z,100196.84
2022-10-13T21:33:50.863Z,100200.31
2022-10-13T21:36:20.627Z,100195.97
2022-10-13T21:38:51.324Z,100199.41
2022-10-13T21:41:18.869Z,100199.41
2022-10-13T21:43:46.563Z,100202.81
2022-10-13T21:46:17.433Z,100204.59
2022-10-13T21:48:45.696Z,100197.66
2022-10-13T21:51:15.532Z,100194.19
2022-10-13T21:53:43.384Z,100201.94
2022-10-13T21:56:12.423Z,100194.19
2022-10-13T21:58:40.171Z,100202.78
2022-10-13T22:01:08.671Z,100199.28
2022-10-13T22:03:37.840Z,100201.06
2022-10-13T22:06:06.918Z,100205.31
2022-10-13T22:08:39.101Z,100201.06
2022-10-13T22:11:15.904Z,100207.88
2022-10-13T22:13:43.508Z,100201.84
2022-10-13T22:16:13.503Z,100207.03
2022-10-13T22:18:47.233Z,100201.84
2022-10-13T22:21:17.035Z,100213.03
2022-10-13T22:23:45.099Z,100206.09
2022-10-13T22:26:13.083Z,100216.44
2022-10-13T22:28:40.884Z,100213.84
2022-10-13T22:31:10.536Z,100211.31
2022-10-13T22:33:39.116Z,100215.59
2022-10-13T22:36:09.260Z,100214.66
2022-10-13T22:38:37.360Z,100213.81
2022-10-13T22:41:08.531Z,100203.41
2022-10-13T22:43:36.662Z,100201.75
2022-10-13T22:46:13.523Z,100209.53
2022-10-13T22:48:41.705Z,100202.50
2022-10-13T22:51:18.432Z,100206.06
2022-10-13T22:53:46.234Z,100194.75
2022-10-13T22:56:16.107Z,100198.25
2022-10-13T22:58:43.680Z,100203.41
2022-10-13T23:01:12.971Z,100188.69
2022-10-13T23:03:40.884Z,100197.34
2022-10-13T23:06:13.276Z,100191.38
2022-10-13T23:08:42.536Z,100193.97
2022-10-13T23:11:10.785Z,100187.00
2022-10-13T23:13:38.323Z,100185.28
2022-10-13T23:16:08.373Z,100187.84
2022-10-13T23:18:38.378Z,100185.38
2022-10-13T23:21:06.745Z,100179.34
2022-10-13T23:23:34.551Z,100175.03
2022-10-13T23:26:05.369Z,100179.34
2022-10-13T23:28:33.527Z,100175.03
2022-10-13T23:31:03.254Z,100178.47
2022-10-13T23:33:31.387Z,100172.47
2022-10-13T23:36:01.108Z,100166.44
2022-10-13T23:38:30.023Z,100171.66
2022-10-13T23:41:05.084Z,100175.97
2022-10-13T23:43:32.684Z,100173.38
2022-10-13T23:46:00.924Z,100175.06
2022-10-13T23:48:28.835Z,100170.78
2022-10-13T23:50:56.753Z,100170.81
2022-10-13T23:53:24.327Z,100168.25
2022-10-13T23:55:51.851Z,100162.28
2022-10-13T23:58:27.432Z,100161.41
